createdAt,value
2018-04-17T00:00:30.708Z,76.04
2018-04-17T00:02:58.424Z,76.08
2018-04-17T00:05:26.250Z,76.19
2018-04-17T00:07:53.899Z,76.29
2018-04-17T00:10:21.561Z,76.39
2018-04-17T00:12:49.162Z,76.43
2018-04-17T00:15:16.820Z,76.50
2018-04-17T00:17:44.396Z,76.54
2018-04-17T00:20:11.970Z,76.57
2018-04-17T00:22:39.679Z,76.57
2018-04-17T00:25:07.330Z,76.53
2018-04-17T00:27:35.063Z,76.56
2018-04-17T00:30:02.668Z,76.73
2018-04-17T00:32:30.425Z,76.84
2018-04-17T00:34:58.024Z,76.95
2018-04-17T00:37:25.609Z,77.06
2018-04-17T00:39:53.292Z,77.23
2018-04-17T00:42:20.872Z,77.36
2018-04-17T00:44:48.848Z,77.48
2018-04-17T00:47:16.482Z,77.58
2018-04-17T00:49:44.061Z,77.72
2018-04-17T00:52:11.754Z,77.89
2018-04-17T00:54:39.400Z,78.26
2018-04-17T00:57:07.051Z,78.33
2018-04-17T00:59:34.744Z,78.28
2018-04-17T01:02:02.423Z,78.28
2018-04-17T01:04:30.167Z,78.25
2018-04-17T01:06:58.004Z,78.31
2018-04-17T01:09:25.701Z,78.64
2018-04-17T01:11:53.320Z,79.11
2018-04-17T01:14:21.010Z,79.67
2018-04-17T01:16:48.630Z,80.59
2018-04-17T01:19:16.376Z,81.09
2018-04-17T01:21:43.992Z,81.14
2018-04-17T01:24:11.688Z,81.05
2018-04-17T01:26:39.266Z,80.99
2018-04-17T01:29:06.978Z,80.89
2018-04-17T01:31:34.650Z,80.78
2018-04-17T01:34:02.225Z,80.67
2018-04-17T01:36:29.911Z,80.47
2018-04-17T01:38:58.134Z,80.31
2018-04-17T01:41:25.724Z,80.17
2018-04-17T01:43:53.414Z,80.02
2018-04-17T01:46:21.103Z,79.94
2018-04-17T01:48:49.184Z,79.89
2018-04-17T01:51:16.872Z,79.90
2018-04-17T01:53:44.533Z,79.94
2018-04-17T01:56:12.333Z,80.09
2018-04-17T01:58:40.186Z,80.09
2018-04-17T02:01:07.772Z,80.15
2018-04-17T02:03:35.528Z,81.06
2018-04-17T02:06:03.117Z,81.49
2018-04-17T02:08:30.728Z,81.88
2018-04-17T02:10:58.423Z,82.19
2018-04-17T02:13:26.060Z,82.38
2018-04-17T02:15:53.721Z,82.50
2018-04-17T02:18:21.446Z,82.37
2018-04-17T02:20:49.060Z,82.23
2018-04-17T02:23:16.781Z,82.20
2018-04-17T02:25:44.444Z,82.20
2018-04-17T02:28:12.024Z,82.21
2018-04-17T02:30:39.687Z,82.24
2018-04-17T02:33:07.740Z,82.09
2018-04-17T02:35:35.478Z,82.10
2018-04-17T02:38:03.072Z,82.25
2018-04-17T02:40:31.227Z,82.57
2018-04-17T02:42:58.888Z,82.32
2018-04-17T02:45:26.753Z,82.17
2018-04-17T02:47:54.478Z,82.01
2018-04-17T02:50:22.074Z,81.84
2018-04-17T02:52:49.656Z,81.67
2018-04-17T02:55:17.380Z,81.51
2018-04-17T02:57:45.040Z,81.44
2018-04-17T03:00:13.051Z,81.33
2018-04-17T03:02:41.051Z,81.35
2018-04-17T03:05:08.686Z,81.31
2018-04-17T03:07:36.266Z,81.27
2018-04-17T03:10:04.542Z,81.38
2018-04-17T03:12:32.517Z,81.44
2018-04-17T03:15:00.173Z,81.48
2018-04-17T03:17:27.816Z,81.42
2018-04-17T03:19:55.477Z,81.36
2018-04-17T03:22:23.126Z,81.50
2018-04-17T03:24:50.783Z,81.51
2018-04-17T03:27:18.517Z,81.76
2018-04-17T03:29:46.312Z,81.93
2018-04-17T03:32:14.197Z,81.94
2018-04-17T03:34:41.844Z,81.88
2018-04-17T03:37:09.635Z,81.93
2018-04-17T03:39:37.672Z,81.95
2018-04-17T03:42:05.371Z,82.04
2018-04-17T03:44:33.021Z,82.12
2018-04-17T03:47:00.979Z,82.35
2018-04-17T03:49:28.691Z,82.37
2018-04-17T03:51:56.298Z,82.37
2018-04-17T03:54:24.369Z,82.35
2018-04-17T03:56:51.981Z,82.39
2018-04-17T03:59:19.710Z,82.45
2018-04-17T04:01:47.692Z,82.44
2018-04-17T04:04:15.429Z,82.42
2018-04-17T04:06:43.416Z,82.33
2018-04-17T04:09:11.070Z,82.24
2018-04-17T04:11:38.686Z,82.17
2018-04-17T04:14:06.295Z,82.10
2018-04-17T04:16:46.191Z,82.08
2018-04-17T04:19:25.490Z,82.07
2018-04-17T04:22:05.224Z,82.04
2018-04-17T04:24:44.878Z,82.05
2018-04-17T04:27:12.476Z,82.02
2018-04-17T04:29:40.221Z,82.00
2018-04-17T04:32:07.807Z,81.99
2018-04-17T04:34:35.412Z,82.04
2018-04-17T04:37:03.263Z,82.14
2018-04-17T04:39:30.882Z,82.54
2018-04-17T04:41:58.524Z,82.75
2018-04-17T04:44:26.108Z,82.81
2018-04-17T04:46:54.263Z,83.03
2018-04-17T04:49:21.880Z,83.27
2018-04-17T04:51:49.639Z,83.57
2018-04-17T04:54:17.492Z,83.82
2018-04-17T04:56:45.384Z,83.96
2018-04-17T04:59:13.258Z,83.93
2018-04-17T05:01:40.938Z,83.92
2018-04-17T05:04:08.768Z,84.00
2018-04-17T05:06:36.439Z,84.13
2018-04-17T05:09:04.134Z,84.18
2018-04-17T05:11:32.080Z,84.24
2018-04-17T05:13:59.723Z,84.26
2018-04-17T05:16:27.327Z,84.32
2018-04-17T05:18:54.986Z,84.36
2018-04-17T05:21:22.592Z,84.40
2018-04-17T05:23:50.357Z,84.49
2018-04-17T05:26:18.288Z,84.64
2018-04-17T05:28:45.881Z,84.75
2018-04-17T05:31:13.554Z,84.76
2018-04-17T05:33:41.680Z,84.93
2018-04-17T05:36:09.293Z,85.09
2018-04-17T05:38:36.869Z,85.19
2018-04-17T05:41:05.771Z,85.41
2018-04-17T05:43:33.439Z,85.69
2018-04-17T05:46:01.403Z,86.32
2018-04-17T05:48:29.213Z,86.66
2018-04-17T05:50:57.079Z,87.57
2018-04-17T05:53:24.677Z,88.67
2018-04-17T05:55:52.422Z,89.32
2018-04-17T05:58:20.301Z,88.99
2018-04-17T06:00:48.194Z,89.19
2018-04-17T06:03:16.160Z,89.27
2018-04-17T06:05:43.784Z,89.29
2018-04-17T06:08:11.393Z,88.96
2018-04-17T06:10:39.410Z,88.72
2018-04-17T06:13:07.052Z,88.85
2018-04-17T06:15:34.648Z,88.72
2018-04-17T06:18:02.268Z,88.15
2018-04-17T06:20:29.909Z,87.74
2018-04-17T06:22:58.033Z,87.22
2018-04-17T06:25:25.943Z,86.77
2018-04-17T06:27:53.800Z,86.51
2018-04-17T06:30:21.449Z,86.27
2018-04-17T06:32:49.097Z,86.16
2018-04-17T06:35:16.697Z,85.82
2018-04-17T06:37:44.340Z,84.64
2018-04-17T06:40:12.226Z,84.03
2018-04-17T06:42:39.886Z,83.30
2018-04-17T06:45:07.560Z,82.59
2018-04-17T06:47:35.236Z,82.38
2018-04-17T06:50:02.857Z,81.26
2018-04-17T06:52:30.560Z,80.50
2018-04-17T06:54:58.629Z,80.43
2018-04-17T06:57:26.280Z,79.18
2018-04-17T06:59:54.262Z,78.72
2018-04-17T07:02:21.881Z,78.18
2018-04-17T07:04:49.552Z,77.99
2018-04-17T07:07:17.157Z,76.73
2018-04-17T07:09:44.744Z,76.93
2018-04-17T07:12:12.556Z,76.17
2018-04-17T07:14:40.437Z,75.92
2018-04-17T07:17:08.389Z,74.93
2018-04-17T07:19:36.220Z,73.97
2018-04-17T07:22:03.868Z,74.19
2018-04-17T07:24:31.464Z,73.78
2018-04-17T07:26:59.137Z,73.07
2018-04-17T07:29:26.795Z,72.00
2018-04-17T07:31:54.388Z,71.83
2018-04-17T07:34:22.009Z,70.77
2018-04-17T07:36:49.618Z,70.07
2018-04-17T07:39:17.270Z,68.46
2018-04-17T07:41:44.957Z,68.60
2018-04-17T07:44:12.882Z,67.46
2018-04-17T07:46:40.587Z,67.08
2018-04-17T07:49:08.175Z,66.72
2018-04-17T07:51:35.758Z,66.66
2018-04-17T07:54:03.442Z,66.13
2018-04-17T07:56:31.020Z,64.64
2018-04-17T07:58:58.801Z,64.33
2018-04-17T08:01:26.444Z,64.12
2018-04-17T08:03:54.339Z,62.59
2018-04-17T08:06:22.186Z,61.48
2018-04-17T08:08:49.810Z,62.13
2018-04-17T08:11:17.444Z,60.93
2018-04-17T08:13:45.088Z,60.32
2018-04-17T08:16:12.728Z,60.31
2018-04-17T08:18:40.353Z,60.10
2018-04-17T08:21:08.099Z,57.88
2018-04-17T08:23:35.711Z,57.71
2018-04-17T08:26:03.304Z,58.38
2018-04-17T08:28:30.919Z,56.52
2018-04-17T08:30:58.602Z,57.69
2018-04-17T08:33:26.209Z,57.12
2018-04-17T08:35:53.811Z,56.15
2018-04-17T08:38:21.451Z,55.78
2018-04-17T08:40:49.062Z,54.48
2018-04-17T08:43:16.647Z,54.96
2018-04-17T08:45:44.356Z,54.76
2018-04-17T08:48:11.954Z,54.19
2018-04-17T08:50:39.968Z,54.63
2018-04-17T08:53:07.683Z,53.95
2018-04-17T08:55:35.262Z,54.41
2018-04-17T08:58:02.878Z,53.77
2018-04-17T09:00:30.487Z,54.41
2018-04-17T09:02:58.186Z,52.94
2018-04-17T09:05:25.771Z,51.98
2018-04-17T09:07:53.803Z,53.00
2018-04-17T09:10:21.466Z,52.42
2018-04-17T09:12:49.151Z,52.08
2018-04-17T09:15:16.774Z,50.92
2018-04-17T09:17:44.381Z,51.66
2018-04-17T09:20:12.048Z,51.54
2018-04-17T09:22:39.714Z,51.23
2018-04-17T09:25:07.360Z,52.56
2018-04-17T09:27:35.087Z,53.49
2018-04-17T09:30:02.707Z,52.05
2018-04-17T09:32:30.446Z,51.18
2018-04-17T09:34:58.133Z,49.75
2018-04-17T09:37:25.804Z,50.48
2018-04-17T09:39:53.935Z,50.52
2018-04-17T09:42:21.925Z,48.69
2018-04-17T09:44:49.526Z,47.90
2018-04-17T09:47:17.346Z,49.43
2018-04-17T09:49:44.963Z,49.71
2018-04-17T09:52:12.571Z,49.12
2018-04-17T09:54:40.228Z,47.32
2018-04-17T09:57:07.899Z,45.93
2018-04-17T09:59:35.559Z,45.83
2018-04-17T10:02:03.307Z,47.12
2018-04-17T10:04:30.909Z,47.12
2018-04-17T10:06:58.851Z,48.07
2018-04-17T10:09:26.948Z,47.00
2018-04-17T10:11:54.743Z,47.17
2018-04-17T10:14:22.341Z,47.54
2018-04-17T10:16:50.017Z,46.36
2018-04-17T10:19:17.713Z,45.99
2018-04-17T10:21:45.517Z,47.91
2018-04-17T10:24:13.109Z,47.35
2018-04-17T10:26:40.799Z,47.30
2018-04-17T10:29:08.447Z,47.01
2018-04-17T10:31:36.385Z,45.63
2018-04-17T10:34:04.076Z,46.41
2018-04-17T10:36:31.755Z,45.27
2018-04-17T10:38:59.347Z,44.22
2018-04-17T10:41:27.169Z,44.01
2018-04-17T10:43:55.033Z,42.42
2018-04-17T10:46:22.723Z,43.79
2018-04-17T10:48:50.348Z,41.98
2018-04-17T10:51:17.945Z,43.34
2018-04-17T10:53:45.746Z,44.33
2018-04-17T10:56:13.402Z,41.86
2018-04-17T10:58:41.088Z,40.27
2018-04-17T11:01:08.975Z,40.22
2018-04-17T11:03:36.617Z,40.08
2018-04-17T11:06:04.232Z,39.80
2018-04-17T11:08:31.847Z,39.12
2018-04-17T11:10:59.443Z,40.52
2018-04-17T11:13:27.166Z,39.84
2018-04-17T11:15:55.124Z,39.25
2018-04-17T11:18:22.747Z,39.28
2018-04-17T11:20:50.448Z,39.97
2018-04-17T11:23:18.140Z,39.45
2018-04-17T11:25:45.744Z,37.47
2018-04-17T11:28:13.635Z,36.87
2018-04-17T11:30:41.247Z,37.13
2018-04-17T11:33:09.385Z,37.37
2018-04-17T11:35:37.364Z,38.32
2018-04-17T11:38:05.047Z,36.73
2018-04-17T11:40:32.731Z,36.93
2018-04-17T11:43:00.367Z,36.83
2018-04-17T11:45:28.086Z,35.70
2018-04-17T11:47:55.686Z,36.55
2018-04-17T11:50:23.550Z,35.68
2018-04-17T11:52:51.231Z,35.97
2018-04-17T11:55:18.926Z,37.26
2018-04-17T11:57:46.671Z,35.40
2018-04-17T12:00:14.441Z,36.79
2018-04-17T12:02:42.068Z,36.37
2018-04-17T12:05:09.754Z,35.41
2018-04-17T12:07:37.489Z,36.29
2018-04-17T12:10:05.101Z,37.02
2018-04-17T12:12:32.778Z,36.51
2018-04-17T12:15:00.538Z,35.32
2018-04-17T12:17:28.223Z,35.98
2018-04-17T12:19:56.290Z,35.56
2018-04-17T12:22:24.092Z,35.05
2018-04-17T12:24:51.792Z,35.10
2018-04-17T12:27:19.473Z,35.70
2018-04-17T12:29:47.214Z,35.12
2018-04-17T12:32:14.826Z,34.88
2018-04-17T12:34:42.674Z,35.41
2018-04-17T12:37:10.351Z,34.76
2018-04-17T12:39:38.046Z,34.93
2018-04-17T12:42:05.969Z,34.91
2018-04-17T12:44:33.820Z,34.66
2018-04-17T12:47:01.409Z,34.19
2018-04-17T12:49:28.995Z,33.57
2018-04-17T12:51:57.015Z,33.98
2018-04-17T12:54:24.705Z,34.06
2018-04-17T12:56:52.772Z,34.06
2018-04-17T12:59:20.892Z,33.80
2018-04-17T13:01:48.495Z,32.78
2018-04-17T13:04:16.113Z,33.22
2018-04-17T13:06:43.807Z,32.96
2018-04-17T13:09:11.447Z,33.38
2018-04-17T13:11:39.150Z,33.42
2018-04-17T13:14:06.808Z,33.19
2018-04-17T13:16:34.437Z,33.87
2018-04-17T13:19:02.348Z,32.74
2018-04-17T13:21:30.109Z,31.25
2018-04-17T13:23:57.723Z,31.16
2018-04-17T13:26:25.315Z,31.56
2018-04-17T13:28:52.950Z,31.09
2018-04-17T13:31:20.547Z,30.91
2018-04-17T13:33:48.165Z,30.56
2018-04-17T13:36:15.876Z,31.61
2018-04-17T13:38:43.531Z,30.83
2018-04-17T13:41:11.238Z,30.42
2018-04-17T13:43:38.902Z,30.79
2018-04-17T13:46:06.612Z,30.24
2018-04-17T13:48:34.308Z,30.54
2018-04-17T13:51:01.991Z,31.10
2018-04-17T13:53:29.682Z,29.73
2018-04-17T13:55:57.339Z,29.63
2018-04-17T13:58:25.057Z,30.96
2018-04-17T14:00:52.741Z,30.91
2018-04-17T14:03:20.417Z,31.37
2018-04-17T14:05:48.083Z,31.13
2018-04-17T14:08:15.704Z,31.25
2018-04-17T14:10:43.651Z,30.75
2018-04-17T14:13:11.263Z,30.85
2018-04-17T14:15:38.872Z,31.27
2018-04-17T14:18:07.026Z,31.56
2018-04-17T14:20:34.623Z,32.01
2018-04-17T14:23:02.386Z,31.35
2018-04-17T14:25:30.100Z,31.58
2018-04-17T14:27:57.708Z,31.59
2018-04-17T14:30:25.372Z,31.26
2018-04-17T14:32:52.992Z,31.08
2018-04-17T14:35:20.895Z,32.18
2018-04-17T14:37:48.577Z,31.59
2018-04-17T14:40:16.175Z,31.80
2018-04-17T14:42:44.086Z,31.78
2018-04-17T14:45:11.686Z,31.91
2018-04-17T14:47:39.783Z,32.11
2018-04-17T14:50:07.464Z,31.72
2018-04-17T14:52:35.196Z,32.06
2018-04-17T14:55:03.008Z,31.61
2018-04-17T14:57:30.652Z,32.54
2018-04-17T14:59:58.317Z,32.25
2018-04-17T15:02:26.184Z,32.56
2018-04-17T15:04:53.839Z,31.89
2018-04-17T15:07:21.498Z,31.31
2018-04-17T15:09:49.294Z,32.32
2018-04-17T15:12:17.021Z,32.22
2018-04-17T15:14:44.641Z,31.51
2018-04-17T15:17:12.232Z,31.58
2018-04-17T15:19:40.293Z,32.33
2018-04-17T15:22:08.087Z,32.36
2018-04-17T15:24:35.694Z,32.77
2018-04-17T15:27:03.406Z,33.38
2018-04-17T15:29:31.053Z,33.97
2018-04-17T15:31:58.711Z,33.71
2018-04-17T15:34:26.412Z,33.45
2018-04-17T15:36:53.995Z,34.53
2018-04-17T15:39:22.019Z,34.79
2018-04-17T15:41:49.697Z,35.00
2018-04-17T15:44:17.308Z,35.08
2018-04-17T15:46:45.412Z,35.04
2018-04-17T15:49:13.177Z,35.86
2018-04-17T15:51:40.758Z,35.88
2018-04-17T15:54:08.387Z,35.50
2018-04-17T15:56:35.998Z,36.23
2018-04-17T15:59:03.728Z,35.01
2018-04-17T16:01:31.401Z,34.86
2018-04-17T16:03:59.417Z,35.33
2018-04-17T16:06:27.187Z,35.35
2018-04-17T16:08:54.844Z,34.71
2018-04-17T16:11:23.140Z,35.13
2018-04-17T16:13:50.743Z,35.22
2018-04-17T16:16:18.423Z,37.24
2018-04-17T16:18:46.044Z,36.56
2018-04-17T16:21:13.736Z,36.59
2018-04-17T16:23:42.134Z,36.36
2018-04-17T16:26:09.847Z,36.54
2018-04-17T16:28:37.443Z,36.98
2018-04-17T16:31:05.161Z,37.14
2018-04-17T16:33:33.336Z,36.95
2018-04-17T16:36:00.979Z,37.56
2018-04-17T16:38:28.734Z,37.47
2018-04-17T16:40:56.483Z,37.78
2018-04-17T16:43:24.084Z,38.96
2018-04-17T16:45:51.895Z,39.05
2018-04-17T16:48:19.660Z,39.42
2018-04-17T16:50:47.250Z,39.57
2018-04-17T16:53:15.068Z,39.14
2018-04-17T16:55:42.695Z,38.15
2018-04-17T16:58:10.377Z,39.24
2018-04-17T17:00:38.018Z,39.87
2018-04-17T17:03:05.760Z,40.50
2018-04-17T17:05:33.451Z,40.60
2018-04-17T17:08:01.175Z,40.77
2018-04-17T17:10:29.076Z,40.91
2018-04-17T17:12:56.715Z,40.26
2018-04-17T17:15:24.559Z,39.65
2018-04-17T17:17:52.222Z,39.95
2018-04-17T17:20:19.931Z,40.09
2018-04-17T17:22:47.989Z,40.59
2018-04-17T17:25:15.595Z,40.90
2018-04-17T17:27:43.229Z,40.95
2018-04-17T17:30:10.907Z,41.12
2018-04-17T17:32:38.694Z,41.19
2018-04-17T17:35:06.334Z,41.57
2018-04-17T17:37:34.200Z,41.77
2018-04-17T17:40:01.825Z,41.93
2018-04-17T17:42:29.477Z,42.16
2018-04-17T17:44:57.274Z,42.19
2018-04-17T17:47:25.001Z,41.99
2018-04-17T17:49:52.986Z,42.09
2018-04-17T17:52:20.654Z,42.33
2018-04-17T17:54:48.250Z,42.73
2018-04-17T17:57:16.177Z,43.03
2018-04-17T17:59:43.914Z,43.22
2018-04-17T18:02:11.542Z,43.44
2018-04-17T18:04:39.276Z,43.76
2018-04-17T18:07:06.972Z,44.06
2018-04-17T18:09:34.583Z,44.25
2018-04-17T18:12:02.208Z,44.37
2018-04-17T18:14:29.799Z,44.59
2018-04-17T18:16:57.674Z,44.72
2018-04-17T18:19:25.301Z,44.64
2018-04-17T18:21:52.927Z,44.50
2018-04-17T18:24:20.871Z,44.59
2018-04-17T18:26:48.611Z,44.76
2018-04-17T18:29:16.210Z,45.13
2018-04-17T18:31:43.872Z,45.35
2018-04-17T18:34:11.908Z,45.68
2018-04-17T18:36:39.491Z,45.95
2018-04-17T18:39:07.474Z,46.19
2018-04-17T18:41:35.250Z,46.30
2018-04-17T18:44:02.867Z,46.55
2018-04-17T18:46:30.516Z,46.79
2018-04-17T18:48:58.249Z,47.01
2018-04-17T18:51:25.953Z,47.11
2018-04-17T18:53:53.663Z,47.11
2018-04-17T18:56:21.277Z,47.13
2018-04-17T18:58:49.371Z,47.21
2018-04-17T19:01:16.962Z,47.50
2018-04-17T19:03:44.624Z,47.85
2018-04-17T19:06:12.252Z,47.90
2018-04-17T19:08:39.936Z,48.00
2018-04-17T19:11:07.569Z,48.19
2018-04-17T19:13:35.223Z,48.37
2018-04-17T19:16:02.843Z,48.48
2018-04-17T19:18:30.525Z,48.68
2018-04-17T19:20:58.231Z,49.02
2018-04-17T19:23:25.915Z,49.22
2018-04-17T19:25:53.547Z,49.33
2018-04-17T19:28:21.224Z,49.51
2018-04-17T19:30:49.041Z,49.71
2018-04-17T19:33:16.691Z,49.99
2018-04-17T19:35:44.614Z,50.00
2018-04-17T19:38:12.246Z,50.15
2018-04-17T19:40:39.903Z,50.43
2018-04-17T19:43:07.554Z,50.62
2018-04-17T19:45:35.167Z,50.86
2018-04-17T19:48:02.800Z,51.16
2018-04-17T19:50:30.512Z,51.22
2018-04-17T19:52:58.103Z,51.46
2018-04-17T19:55:25.761Z,51.85
2018-04-17T19:57:53.470Z,52.13
2018-04-17T20:00:22.054Z,52.38
2018-04-17T20:02:49.709Z,52.45
2018-04-17T20:05:17.445Z,52.56
2018-04-17T20:07:45.943Z,52.44
2018-04-17T20:10:13.567Z,52.48
2018-04-17T20:12:41.508Z,52.59
2018-04-17T20:15:09.169Z,52.73
2018-04-17T20:17:36.821Z,52.87
2018-04-17T20:20:04.501Z,53.12
2018-04-17T20:22:32.152Z,53.32
2018-04-17T20:24:59.740Z,53.50
2018-04-17T20:27:27.397Z,53.67
2018-04-17T20:29:55.019Z,54.30
2018-04-17T20:32:22.617Z,54.62
2018-04-17T20:34:50.240Z,55.05
2018-04-17T20:37:17.929Z,55.32
2018-04-17T20:39:45.671Z,55.73
2018-04-17T20:42:13.392Z,55.92
2018-04-17T20:44:41.187Z,55.84
2018-04-17T20:47:08.810Z,55.81
2018-04-17T20:49:36.493Z,55.87
2018-04-17T20:52:04.429Z,56.02
2018-04-17T20:54:32.123Z,56.01
2018-04-17T20:56:59.855Z,56.14
2018-04-17T20:59:27.530Z,56.40
2018-04-17T21:01:55.194Z,56.70
2018-04-17T21:04:22.821Z,56.88
2018-04-17T21:06:50.783Z,56.97
2018-04-17T21:09:18.653Z,57.17
2018-04-17T21:11:46.321Z,57.47
2018-04-17T21:14:13.910Z,57.71
2018-04-17T21:16:41.569Z,57.76
2018-04-17T21:19:09.603Z,58.01
2018-04-17T21:21:37.579Z,57.93
2018-04-17T21:24:05.180Z,57.96
2018-04-17T21:26:33.098Z,58.27
2018-04-17T21:29:00.754Z,58.34
2018-04-17T21:31:28.688Z,58.58
2018-04-17T21:33:56.531Z,58.71
2018-04-17T21:36:24.178Z,58.88
2018-04-17T21:38:52.081Z,59.13
2018-04-17T21:41:19.830Z,59.69
2018-04-17T21:43:47.765Z,59.95
2018-04-17T21:46:15.436Z,60.12
2018-04-17T21:48:43.049Z,60.19
2018-04-17T21:51:10.724Z,60.30
2018-04-17T21:53:38.402Z,60.70
2018-04-17T21:56:05.995Z,60.83
2018-04-17T21:58:34.118Z,60.96
2018-04-17T22:01:02.081Z,61.07
2018-04-17T22:03:29.836Z,61.08
2018-04-17T22:05:57.677Z,61.41
2018-04-17T22:08:25.413Z,61.73
2018-04-17T22:10:53.434Z,61.98
2018-04-17T22:13:21.115Z,62.28
2018-04-17T22:15:49.016Z,62.53
2018-04-17T22:18:16.853Z,62.79
2018-04-17T22:20:44.584Z,63.00
2018-04-17T22:23:12.374Z,63.22
2018-04-17T22:25:40.126Z,63.41
2018-04-17T22:28:07.801Z,63.54
2018-04-17T22:30:35.628Z,63.57
2018-04-17T22:33:03.280Z,63.76
2018-04-17T22:35:31.134Z,63.80
2018-04-17T22:37:58.776Z,63.94
2018-04-17T22:40:26.460Z,64.18
2018-04-17T22:42:54.240Z,64.28
2018-04-17T22:45:21.993Z,64.22
2018-04-17T22:47:49.863Z,64.26
2018-04-17T22:50:17.601Z,64.16
2018-04-17T22:52:45.352Z,64.11
2018-04-17T22:55:13.006Z,64.28
2018-04-17T22:57:40.796Z,64.47
2018-04-17T23:00:08.591Z,64.72
2018-04-17T23:02:37.008Z,64.83
2018-04-17T23:05:04.696Z,65.09
2018-04-17T23:07:32.409Z,65.41
2018-04-17T23:10:00.691Z,65.58
2018-04-17T23:12:28.296Z,65.68
2018-04-17T23:14:55.888Z,65.86
2018-04-17T23:17:23.495Z,66.00
2018-04-17T23:19:51.527Z,66.07
2018-04-17T23:22:19.203Z,66.16
2018-04-17T23:24:47.149Z,66.42
2018-04-17T23:27:14.938Z,66.74
2018-04-17T23:29:42.626Z,66.82
2018-04-17T23:32:10.713Z,67.00
2018-04-17T23:34:38.352Z,67.13
2018-04-17T23:37:06.082Z,67.22
2018-04-17T23:39:33.916Z,67.35
2018-04-17T23:42:02.009Z,67.43
2018-04-17T23:44:29.712Z,67.52
2018-04-17T23:46:57.492Z,67.57
2018-04-17T23:49:25.198Z,67.70
2018-04-17T23:51:53.146Z,67.76
2018-04-17T23:54:20.753Z,67.81
2018-04-17T23:56:48.377Z,67.88
2018-04-17T23:59:16.375Z,68.06
